Terminal Aerodrome Forecast
Issued by NWS

Home | Current Version | Previous Version | Text Only | Print | Product List | Glossary On
Versions: 1 2 3 4 5 6 7 8 9 10 11 12 13 14 15 16 17 18 19 20
000
FTUS43 KDLH 292336
TAFBRD
TAF
KBRD 292336Z 3000/3024 08003KT P6SM SCT030
     FM300500 08002KT 6SM BR SCT010
     FM300800 00000KT 1SM BR SCT005 BKN010
      TEMPO 3009/3013 3/4SM BR BKN005 OVC010
     FM301500 07005KT P6SM SCT015 SCT035=

USA.gov is the U.S. government's official web portal to all federal, state and local government web resources and services.